sensor_id;sensor_type;location;lat;lon;timestamp;temperature;humidity
21801;DHT22;11062;51.164;16.924;2022-07-29T00:00:42;35.30;32.70
21801;DHT22;11062;51.164;16.924;2022-07-29T00:03:11;35.30;32.70
21801;DHT22;11062;51.164;16.924;2022-07-29T00:05:41;35.20;32.60
21801;DHT22;11062;51.164;16.924;2022-07-29T00:08:08;35.20;32.60
21801;DHT22;11062;51.164;16.924;2022-07-29T00:10:34;35.20;32.70
21801;DHT22;11062;51.164;16.924;2022-07-29T00:13:00;35.20;32.70
21801;DHT22;11062;51.164;16.924;2022-07-29T00:15:27;35.20;32.50
21801;DHT22;11062;51.164;16.924;2022-07-29T00:17:52;35.20;32.70
21801;DHT22;11062;51.164;16.924;2022-07-29T00:20:18;35.20;32.70
21801;DHT22;11062;51.164;16.924;2022-07-29T00:22:44;35.30;32.80
21801;DHT22;11062;51.164;16.924;2022-07-29T00:25:12;35.30;32.70
21801;DHT22;11062;51.164;16.924;2022-07-29T00:27:39;35.30;32.50
21801;DHT22;11062;51.164;16.924;2022-07-29T00:30:06;35.30;32.60
21801;DHT22;11062;51.164;16.924;2022-07-29T00:32:32;35.30;32.60
21801;DHT22;11062;51.164;16.924;2022-07-29T00:34:58;35.30;32.70
21801;DHT22;11062;51.164;16.924;2022-07-29T00:37:42;35.30;32.70
21801;DHT22;11062;51.164;16.924;2022-07-29T00:40:09;35.30;32.60
21801;DHT22;11062;51.164;16.924;2022-07-29T00:42:45;35.30;32.70
21801;DHT22;11062;51.164;16.924;2022-07-29T00:45:12;35.30;32.70
21801;DHT22;11062;51.164;16.924;2022-07-29T00:47:38;35.20;32.60
21801;DHT22;11062;51.164;16.924;2022-07-29T00:50:05;35.20;32.70
21801;DHT22;11062;51.164;16.924;2022-07-29T00:52:33;35.20;32.90
21801;DHT22;11062;51.164;16.924;2022-07-29T00:54:59;35.10;32.80
21801;DHT22;11062;51.164;16.924;2022-07-29T00:57:25;35.10;32.80
21801;DHT22;11062;51.164;16.924;2022-07-29T00:59:51;35.10;33.00
21801;DHT22;11062;51.164;16.924;2022-07-29T01:02:17;35.00;33.00
21801;DHT22;11062;51.164;16.924;2022-07-29T01:04:43;35.00;33.60
21801;DHT22;11062;51.164;16.924;2022-07-29T01:07:08;35.00;33.30
21801;DHT22;11062;51.164;16.924;2022-07-29T01:09:35;34.90;33.50
21801;DHT22;11062;51.164;16.924;2022-07-29T01:12:02;34.90;33.50
21801;DHT22;11062;51.164;16.924;2022-07-29T01:14:29;34.90;33.60
21801;DHT22;11062;51.164;16.924;2022-07-29T01:17:06;34.80;33.60
21801;DHT22;11062;51.164;16.924;2022-07-29T01:19:52;34.70;33.70
21801;DHT22;11062;51.164;16.924;2022-07-29T01:30:16;34.60;34.00
21801;DHT22;11062;51.164;16.924;2022-07-29T01:32:46;34.50;34.10
21801;DHT22;11062;51.164;16.924;2022-07-29T01:35:23;34.50;34.10
21801;DHT22;11062;51.164;16.924;2022-07-29T01:40:34;34.40;34.20
21801;DHT22;11062;51.164;16.924;2022-07-29T01:43:09;34.30;34.20
21801;DHT22;11062;51.164;16.924;2022-07-29T01:45:52;34.40;34.40
21801;DHT22;11062;51.164;16.924;2022-07-29T01:48:22;34.30;34.40
21801;DHT22;11062;51.164;16.924;2022-07-29T01:50:51;34.30;34.60
21801;DHT22;11062;51.164;16.924;2022-07-29T01:53:44;34.20;34.60
21801;DHT22;11062;51.164;16.924;2022-07-29T01:56:12;34.20;34.60
21801;DHT22;11062;51.164;16.924;2022-07-29T01:58:40;34.10;34.80
21801;DHT22;11062;51.164;16.924;2022-07-29T02:01:08;34.10;34.90
21801;DHT22;11062;51.164;16.924;2022-07-29T02:03:36;34.00;34.90
21801;DHT22;11062;51.164;16.924;2022-07-29T02:06:04;34.00;35.00
21801;DHT22;11062;51.164;16.924;2022-07-29T02:08:33;34.20;35.80
21801;DHT22;11062;51.164;16.924;2022-07-29T02:11:00;33.90;34.90
21801;DHT22;11062;51.164;16.924;2022-07-29T02:13:28;33.90;35.00
21801;DHT22;11062;51.164;16.924;2022-07-29T02:15:56;33.80;35.20
21801;DHT22;11062;51.164;16.924;2022-07-29T02:18:24;33.80;35.30
21801;DHT22;11062;51.164;16.924;2022-07-29T02:20:53;33.60;35.10
21801;DHT22;11062;51.164;16.924;2022-07-29T02:23:21;33.60;35.30
21801;DHT22;11062;51.164;16.924;2022-07-29T02:25:57;33.50;35.50
21801;DHT22;11062;51.164;16.924;2022-07-29T02:28:29;33.50;35.50
21801;DHT22;11062;51.164;16.924;2022-07-29T02:31:00;33.50;35.60
21801;DHT22;11062;51.164;16.924;2022-07-29T02:33:30;33.40;35.60
21801;DHT22;11062;51.164;16.924;2022-07-29T02:35:57;33.40;35.80
21801;DHT22;11062;51.164;16.924;2022-07-29T02:38:24;33.40;35.80
21801;DHT22;11062;51.164;16.924;2022-07-29T02:41:16;33.50;35.90
21801;DHT22;11062;51.164;16.924;2022-07-29T02:43:44;33.40;35.90
21801;DHT22;11062;51.164;16.924;2022-07-29T02:46:16;33.40;35.90
21801;DHT22;11062;51.164;16.924;2022-07-29T02:48:57;33.50;35.90
21801;DHT22;11062;51.164;16.924;2022-07-29T02:51:29;33.50;35.90
21801;DHT22;11062;51.164;16.924;2022-07-29T02:53:59;32.90;35.30
21801;DHT22;11062;51.164;16.924;2022-07-29T02:56:32;33.50;35.70
21801;DHT22;11062;51.164;16.924;2022-07-29T02:59:04;33.50;35.60
21801;DHT22;11062;51.164;16.924;2022-07-29T03:01:32;33.60;35.60
21801;DHT22;11062;51.164;16.924;2022-07-29T03:04:03;33.80;35.90
21801;DHT22;11062;51.164;16.924;2022-07-29T03:06:30;33.50;35.70
21801;DHT22;11062;51.164;16.924;2022-07-29T03:08:59;33.50;35.70
21801;DHT22;11062;51.164;16.924;2022-07-29T03:11:25;33.50;35.80
21801;DHT22;11062;51.164;16.924;2022-07-29T03:13:52;33.50;35.80
21801;DHT22;11062;51.164;16.924;2022-07-29T03:16:19;33.50;35.90
21801;DHT22;11062;51.164;16.924;2022-07-29T03:18:45;33.50;35.90
21801;DHT22;11062;51.164;16.924;2022-07-29T03:21:12;33.50;35.90
21801;DHT22;11062;51.164;16.924;2022-07-29T03:23:43;33.50;35.90
21801;DHT22;11062;51.164;16.924;2022-07-29T03:26:13;33.50;36.00
21801;DHT22;11062;51.164;16.924;2022-07-29T03:28:39;33.50;36.10
21801;DHT22;11062;51.164;16.924;2022-07-29T03:31:05;33.60;36.10
21801;DHT22;11062;51.164;16.924;2022-07-29T03:33:31;33.60;36.10
21801;DHT22;11062;51.164;16.924;2022-07-29T03:35:57;33.60;36.10
21801;DHT22;11062;51.164;16.924;2022-07-29T03:38:26;33.60;36.20
21801;DHT22;11062;51.164;16.924;2022-07-29T03:41:05;33.60;36.20
21801;DHT22;11062;51.164;16.924;2022-07-29T03:43:36;33.60;36.20
21801;DHT22;11062;51.164;16.924;2022-07-29T03:46:05;33.70;36.30
21801;DHT22;11062;51.164;16.924;2022-07-29T03:48:33;33.80;36.30
21801;DHT22;11062;51.164;16.924;2022-07-29T03:51:01;33.80;36.20
21801;DHT22;11062;51.164;16.924;2022-07-29T03:53:27;33.80;36.10
21801;DHT22;11062;51.164;16.924;2022-07-29T03:55:56;33.90;36.20
21801;DHT22;11062;51.164;16.924;2022-07-29T03:58:26;34.00;36.30
21801;DHT22;11062;51.164;16.924;2022-07-29T04:00:54;34.10;36.10
21801;DHT22;11062;51.164;16.924;2022-07-29T04:03:21;34.10;36.10
21801;DHT22;11062;51.164;16.924;2022-07-29T04:06:06;34.10;36.10
21801;DHT22;11062;51.164;16.924;2022-07-29T04:08:33;34.20;36.10
21801;DHT22;11062;51.164;16.924;2022-07-29T04:11:00;34.10;36.10
21801;DHT22;11062;51.164;16.924;2022-07-29T04:13:26;34.10;36.20
21801;DHT22;11062;51.164;16.924;2022-07-29T04:15:52;34.10;36.30
21801;DHT22;11062;51.164;16.924;2022-07-29T04:18:18;34.10;36.50
21801;DHT22;11062;51.164;16.924;2022-07-29T04:20:44;34.00;36.50
21801;DHT22;11062;51.164;16.924;2022-07-29T04:23:10;34.00;36.60
21801;DHT22;11062;51.164;16.924;2022-07-29T04:25:42;34.10;36.50
21801;DHT22;11062;51.164;16.924;2022-07-29T04:28:09;34.10;36.60
21801;DHT22;11062;51.164;16.924;2022-07-29T04:30:37;34.10;36.90
21801;DHT22;11062;51.164;16.924;2022-07-29T04:33:05;34.10;36.90
21801;DHT22;11062;51.164;16.924;2022-07-29T04:35:34;34.10;36.70
21801;DHT22;11062;51.164;16.924;2022-07-29T04:38:00;34.20;36.60
21801;DHT22;11062;51.164;16.924;2022-07-29T04:40:27;34.30;36.50
21801;DHT22;11062;51.164;16.924;2022-07-29T04:42:53;34.40;36.50
21801;DHT22;11062;51.164;16.924;2022-07-29T04:45:19;33.70;36.10
21801;DHT22;11062;51.164;16.924;2022-07-29T04:47:45;34.50;36.30
21801;DHT22;11062;51.164;16.924;2022-07-29T04:50:11;34.60;36.50
21801;DHT22;11062;51.164;16.924;2022-07-29T04:52:37;34.60;36.50
21801;DHT22;11062;51.164;16.924;2022-07-29T04:55:04;34.70;36.30
21801;DHT22;11062;51.164;16.924;2022-07-29T04:57:31;34.70;36.40
21801;DHT22;11062;51.164;16.924;2022-07-29T04:59:56;34.80;36.40
21801;DHT22;11062;51.164;16.924;2022-07-29T05:02:22;34.70;36.20
21801;DHT22;11062;51.164;16.924;2022-07-29T05:04:48;35.00;36.30
21801;DHT22;11062;51.164;16.924;2022-07-29T05:07:15;35.00;36.30
21801;DHT22;11062;51.164;16.924;2022-07-29T05:09:40;35.00;36.00
21801;DHT22;11062;51.164;16.924;2022-07-29T05:12:11;35.00;36.10
21801;DHT22;11062;51.164;16.924;2022-07-29T05:15:04;35.20;36.00
21801;DHT22;11062;51.164;16.924;2022-07-29T05:21:53;35.40;35.70
21801;DHT22;11062;51.164;16.924;2022-07-29T05:28:41;35.70;35.60
21801;DHT22;11062;51.164;16.924;2022-07-29T05:31:07;35.90;35.50
21801;DHT22;11062;51.164;16.924;2022-07-29T05:33:34;36.10;35.30
21801;DHT22;11062;51.164;16.924;2022-07-29T05:36:07;36.20;35.00
21801;DHT22;11062;51.164;16.924;2022-07-29T05:38:46;36.40;34.90
21801;DHT22;11062;51.164;16.924;2022-07-29T05:41:13;36.60;34.60
21801;DHT22;11062;51.164;16.924;2022-07-29T05:43:46;36.50;34.70
21801;DHT22;11062;51.164;16.924;2022-07-29T05:46:22;36.70;34.60
21801;DHT22;11062;51.164;16.924;2022-07-29T05:48:48;36.70;34.80
21801;DHT22;11062;51.164;16.924;2022-07-29T05:51:14;36.80;34.70
21801;DHT22;11062;51.164;16.924;2022-07-29T05:53:40;36.80;34.70
21801;DHT22;11062;51.164;16.924;2022-07-29T05:56:07;36.90;34.70
21801;DHT22;11062;51.164;16.924;2022-07-29T05:58:56;36.90;34.50
21801;DHT22;11062;51.164;16.924;2022-07-29T06:01:52;37.00;34.40
21801;DHT22;11062;51.164;16.924;2022-07-29T06:04:18;37.00;34.50
21801;DHT22;11062;51.164;16.924;2022-07-29T06:06:47;37.10;34.60
21801;DHT22;11062;51.164;16.924;2022-07-29T06:09:13;37.20;34.50
21801;DHT22;11062;51.164;16.924;2022-07-29T06:15:20;37.40;34.00
21801;DHT22;11062;51.164;16.924;2022-07-29T06:17:46;37.20;34.10
21801;DHT22;11062;51.164;16.924;2022-07-29T06:20:14;37.40;34.20
21801;DHT22;11062;51.164;16.924;2022-07-29T06:22:40;37.50;34.50
21801;DHT22;11062;51.164;16.924;2022-07-29T06:25:06;37.50;33.90
21801;DHT22;11062;51.164;16.924;2022-07-29T06:27:32;37.50;33.90
21801;DHT22;11062;51.164;16.924;2022-07-29T06:29:58;37.60;33.50
21801;DHT22;11062;51.164;16.924;2022-07-29T06:32:24;37.60;35.00
21801;DHT22;11062;51.164;16.924;2022-07-29T06:34:50;37.60;35.10
21801;DHT22;11062;51.164;16.924;2022-07-29T06:37:16;37.50;34.30
21801;DHT22;11062;51.164;16.924;2022-07-29T06:39:43;37.60;34.10
21801;DHT22;11062;51.164;16.924;2022-07-29T06:42:09;37.70;34.40
21801;DHT22;11062;51.164;16.924;2022-07-29T06:44:35;38.00;34.90
21801;DHT22;11062;51.164;16.924;2022-07-29T06:47:04;38.10;35.00
21801;DHT22;11062;51.164;16.924;2022-07-29T06:49:30;38.10;34.00
21801;DHT22;11062;51.164;16.924;2022-07-29T06:51:56;38.50;34.00
21801;DHT22;11062;51.164;16.924;2022-07-29T06:54:22;38.60;33.20
21801;DHT22;11062;51.164;16.924;2022-07-29T06:56:48;38.60;33.30
21801;DHT22;11062;51.164;16.924;2022-07-29T06:59:16;38.80;33.00
21801;DHT22;11062;51.164;16.924;2022-07-29T07:01:43;39.00;33.20
21801;DHT22;11062;51.164;16.924;2022-07-29T07:04:09;39.10;32.70
21801;DHT22;11062;51.164;16.924;2022-07-29T07:06:36;39.20;33.70
21801;DHT22;11062;51.164;16.924;2022-07-29T07:09:03;39.30;32.80
21801;DHT22;11062;51.164;16.924;2022-07-29T07:11:29;39.50;32.00
21801;DHT22;11062;51.164;16.924;2022-07-29T07:13:55;39.50;32.00
21801;DHT22;11062;51.164;16.924;2022-07-29T07:16:21;39.60;32.10
21801;DHT22;11062;51.164;16.924;2022-07-29T07:18:47;39.80;32.20
21801;DHT22;11062;51.164;16.924;2022-07-29T07:21:13;39.90;31.90
21801;DHT22;11062;51.164;16.924;2022-07-29T07:23:39;39.90;31.80
21801;DHT22;11062;51.164;16.924;2022-07-29T07:26:05;40.00;31.90
21801;DHT22;11062;51.164;16.924;2022-07-29T07:28:31;40.20;31.80
21801;DHT22;11062;51.164;16.924;2022-07-29T07:30:57;39.90;30.90
21801;DHT22;11062;51.164;16.924;2022-07-29T07:33:23;40.10;30.70
21801;DHT22;11062;51.164;16.924;2022-07-29T07:35:50;40.20;31.80
21801;DHT22;11062;51.164;16.924;2022-07-29T07:38:16;40.10;31.10
21801;DHT22;11062;51.164;16.924;2022-07-29T07:40:42;40.20;31.40
21801;DHT22;11062;51.164;16.924;2022-07-29T07:43:11;40.10;31.20
21801;DHT22;11062;51.164;16.924;2022-07-29T07:45:42;40.10;30.90
21801;DHT22;11062;51.164;16.924;2022-07-29T07:48:08;40.40;31.30
21801;DHT22;11062;51.164;16.924;2022-07-29T07:50:36;40.30;30.70
21801;DHT22;11062;51.164;16.924;2022-07-29T07:53:02;40.30;31.20
21801;DHT22;11062;51.164;16.924;2022-07-29T07:55:28;40.40;30.90
21801;DHT22;11062;51.164;16.924;2022-07-29T07:57:55;40.30;31.30
21801;DHT22;11062;51.164;16.924;2022-07-29T08:00:21;40.50;31.30
21801;DHT22;11062;51.164;16.924;2022-07-29T08:02:47;40.50;31.80
21801;DHT22;11062;51.164;16.924;2022-07-29T08:05:16;40.60;31.20
21801;DHT22;11062;51.164;16.924;2022-07-29T08:07:48;40.40;31.20
21801;DHT22;11062;51.164;16.924;2022-07-29T08:10:18;40.30;31.00
21801;DHT22;11062;51.164;16.924;2022-07-29T08:13:07;40.40;31.10
21801;DHT22;11062;51.164;16.924;2022-07-29T08:15:33;40.40;31.50
21801;DHT22;11062;51.164;16.924;2022-07-29T08:18:00;40.50;31.50
21801;DHT22;11062;51.164;16.924;2022-07-29T08:20:26;40.60;31.40
21801;DHT22;11062;51.164;16.924;2022-07-29T08:22:52;40.80;31.50
21801;DHT22;11062;51.164;16.924;2022-07-29T08:25:19;40.80;31.50
21801;DHT22;11062;51.164;16.924;2022-07-29T08:27:49;40.90;31.30
21801;DHT22;11062;51.164;16.924;2022-07-29T08:30:15;41.10;31.10
21801;DHT22;11062;51.164;16.924;2022-07-29T08:32:43;41.30;31.00
21801;DHT22;11062;51.164;16.924;2022-07-29T08:35:12;41.40;31.40
21801;DHT22;11062;51.164;16.924;2022-07-29T08:37:38;41.40;31.20
21801;DHT22;11062;51.164;16.924;2022-07-29T08:40:08;41.40;30.70
21801;DHT22;11062;51.164;16.924;2022-07-29T08:42:34;41.50;30.90
21801;DHT22;11062;51.164;16.924;2022-07-29T08:45:00;41.60;30.80
21801;DHT22;11062;51.164;16.924;2022-07-29T08:47:27;41.50;30.90
21801;DHT22;11062;51.164;16.924;2022-07-29T08:49:53;41.60;30.80
21801;DHT22;11062;51.164;16.924;2022-07-29T08:52:20;41.70;30.60
21801;DHT22;11062;51.164;16.924;2022-07-29T08:54:47;41.70;31.10
21801;DHT22;11062;51.164;16.924;2022-07-29T08:57:14;41.80;30.90
21801;DHT22;11062;51.164;16.924;2022-07-29T08:59:46;41.80;30.70
21801;DHT22;11062;51.164;16.924;2022-07-29T09:02:20;41.90;30.40
21801;DHT22;11062;51.164;16.924;2022-07-29T09:04:47;41.90;30.40
21801;DHT22;11062;51.164;16.924;2022-07-29T09:07:18;41.90;30.10
21801;DHT22;11062;51.164;16.924;2022-07-29T09:09:44;42.10;30.40
21801;DHT22;11062;51.164;16.924;2022-07-29T09:12:10;41.80;30.20
21801;DHT22;11062;51.164;16.924;2022-07-29T09:14:40;42.00;30.30
21801;DHT22;11062;51.164;16.924;2022-07-29T09:17:07;41.80;30.20
21801;DHT22;11062;51.164;16.924;2022-07-29T09:19:34;42.00;30.50
21801;DHT22;11062;51.164;16.924;2022-07-29T09:22:02;42.20;30.60
21801;DHT22;11062;51.164;16.924;2022-07-29T09:24:46;42.30;30.00
21801;DHT22;11062;51.164;16.924;2022-07-29T09:27:25;42.50;30.00
21801;DHT22;11062;51.164;16.924;2022-07-29T09:30:06;42.60;30.00
21801;DHT22;11062;51.164;16.924;2022-07-29T09:32:33;42.70;30.00
21801;DHT22;11062;51.164;16.924;2022-07-29T09:35:25;42.70;29.70
21801;DHT22;11062;51.164;16.924;2022-07-29T09:37:52;42.90;30.00
21801;DHT22;11062;51.164;16.924;2022-07-29T09:40:24;42.80;30.00
21801;DHT22;11062;51.164;16.924;2022-07-29T09:42:51;42.80;29.80
21801;DHT22;11062;51.164;16.924;2022-07-29T09:45:33;42.90;30.00
21801;DHT22;11062;51.164;16.924;2022-07-29T09:48:12;42.90;29.90
21801;DHT22;11062;51.164;16.924;2022-07-29T09:50:39;43.00;29.60
21801;DHT22;11062;51.164;16.924;2022-07-29T09:53:06;43.30;29.40
21801;DHT22;11062;51.164;16.924;2022-07-29T09:58:27;43.40;29.40
21801;DHT22;11062;51.164;16.924;2022-07-29T10:00:54;43.40;29.60
21801;DHT22;11062;51.164;16.924;2022-07-29T10:03:20;43.10;29.40
21801;DHT22;11062;51.164;16.924;2022-07-29T10:06:05;43.20;29.70
21801;DHT22;11062;51.164;16.924;2022-07-29T10:08:31;43.30;29.20
21801;DHT22;11062;51.164;16.924;2022-07-29T10:11:15;43.30;29.20
21801;DHT22;11062;51.164;16.924;2022-07-29T10:13:42;43.40;29.10
21801;DHT22;11062;51.164;16.924;2022-07-29T10:16:09;43.60;29.30
21801;DHT22;11062;51.164;16.924;2022-07-29T10:18:36;43.70;29.20
21801;DHT22;11062;51.164;16.924;2022-07-29T10:21:03;43.90;29.90
21801;DHT22;11062;51.164;16.924;2022-07-29T10:23:30;43.90;29.20
21801;DHT22;11062;51.164;16.924;2022-07-29T10:25:57;43.90;29.10
21801;DHT22;11062;51.164;16.924;2022-07-29T10:28:23;44.10;28.80
21801;DHT22;11062;51.164;16.924;2022-07-29T10:30:52;44.20;28.90
21801;DHT22;11062;51.164;16.924;2022-07-29T10:42:18;44.40;28.90
21801;DHT22;11062;51.164;16.924;2022-07-29T10:44:49;44.10;29.00
21801;DHT22;11062;51.164;16.924;2022-07-29T10:47:25;43.90;29.00
21801;DHT22;11062;51.164;16.924;2022-07-29T10:49:59;44.10;29.20
21801;DHT22;11062;51.164;16.924;2022-07-29T10:55:37;44.30;29.20
21801;DHT22;11062;51.164;16.924;2022-07-29T10:58:21;44.50;28.60
21801;DHT22;11062;51.164;16.924;2022-07-29T11:00:52;44.70;28.20
21801;DHT22;11062;51.164;16.924;2022-07-29T11:06:07;44.60;28.40
21801;DHT22;11062;51.164;16.924;2022-07-29T11:08:35;44.50;28.60
21801;DHT22;11062;51.164;16.924;2022-07-29T11:13:48;44.50;28.60
21801;DHT22;11062;51.164;16.924;2022-07-29T11:16:20;44.60;28.60
21801;DHT22;11062;51.164;16.924;2022-07-29T11:21:39;44.50;28.60
21801;DHT22;11062;51.164;16.924;2022-07-29T11:27:15;44.40;28.50
21801;DHT22;11062;51.164;16.924;2022-07-29T11:32:25;44.10;28.90
21801;DHT22;11062;51.164;16.924;2022-07-29T11:35:17;44.20;29.10
21801;DHT22;11062;51.164;16.924;2022-07-29T11:37:45;44.30;29.10
21801;DHT22;11062;51.164;16.924;2022-07-29T11:40:16;44.20;29.10
21801;DHT22;11062;51.164;16.924;2022-07-29T11:42:49;44.10;29.20
21801;DHT22;11062;51.164;16.924;2022-07-29T11:45:19;44.40;29.40
21801;DHT22;11062;51.164;16.924;2022-07-29T11:47:49;44.40;29.10
21801;DHT22;11062;51.164;16.924;2022-07-29T11:50:41;44.20;29.10
21801;DHT22;11062;51.164;16.924;2022-07-29T11:53:13;44.30;29.30
21801;DHT22;11062;51.164;16.924;2022-07-29T11:56:09;44.00;29.20
21801;DHT22;11062;51.164;16.924;2022-07-29T11:59:13;44.10;29.40
21801;DHT22;11062;51.164;16.924;2022-07-29T12:01:58;44.40;29.30
21801;DHT22;11062;51.164;16.924;2022-07-29T12:04:51;44.50;29.30
21801;DHT22;11062;51.164;16.924;2022-07-29T12:07:39;44.40;29.10
21801;DHT22;11062;51.164;16.924;2022-07-29T12:10:06;44.60;29.00
21801;DHT22;11062;51.164;16.924;2022-07-29T12:12:33;44.70;29.40
21801;DHT22;11062;51.164;16.924;2022-07-29T12:15:17;44.40;29.00
21801;DHT22;11062;51.164;16.924;2022-07-29T12:17:46;44.20;29.00
21801;DHT22;11062;51.164;16.924;2022-07-29T12:20:12;44.10;29.30
21801;DHT22;11062;51.164;16.924;2022-07-29T12:22:43;44.00;29.10
21801;DHT22;11062;51.164;16.924;2022-07-29T12:25:13;44.10;29.40
21801;DHT22;11062;51.164;16.924;2022-07-29T12:27:47;44.50;29.40
21801;DHT22;11062;51.164;16.924;2022-07-29T12:30:15;44.70;29.00
21801;DHT22;11062;51.164;16.924;2022-07-29T12:32:48;44.80;28.90
21801;DHT22;11062;51.164;16.924;2022-07-29T12:35:18;45.10;28.90
21801;DHT22;11062;51.164;16.924;2022-07-29T12:37:46;45.20;28.60
21801;DHT22;11062;51.164;16.924;2022-07-29T12:40:18;45.30;28.60
21801;DHT22;11062;51.164;16.924;2022-07-29T12:49:44;46.00;28.20
21801;DHT22;11062;51.164;16.924;2022-07-29T12:55:47;46.00;28.20
21801;DHT22;11062;51.164;16.924;2022-07-29T12:58:44;46.00;28.00
21801;DHT22;11062;51.164;16.924;2022-07-29T13:01:36;46.20;27.90
21801;DHT22;11062;51.164;16.924;2022-07-29T13:04:02;46.50;28.10
21801;DHT22;11062;51.164;16.924;2022-07-29T13:06:42;46.40;27.70
21801;DHT22;11062;51.164;16.924;2022-07-29T13:09:37;46.50;27.80
21801;DHT22;11062;51.164;16.924;2022-07-29T13:12:09;46.50;27.80
21801;DHT22;11062;51.164;16.924;2022-07-29T13:14:38;46.60;27.90
21801;DHT22;11062;51.164;16.924;2022-07-29T13:22:24;46.10;27.80
21801;DHT22;11062;51.164;16.924;2022-07-29T13:25:03;46.30;28.10
21801;DHT22;11062;51.164;16.924;2022-07-29T13:27:34;46.40;27.90
21801;DHT22;11062;51.164;16.924;2022-07-29T13:33:18;46.00;27.90
21801;DHT22;11062;51.164;16.924;2022-07-29T13:35:54;45.70;28.00
21801;DHT22;11062;51.164;16.924;2022-07-29T13:38:20;45.60;28.30
21801;DHT22;11062;51.164;16.924;2022-07-29T13:40:47;45.40;28.30
21801;DHT22;11062;51.164;16.924;2022-07-29T13:43:13;45.20;28.60
21801;DHT22;11062;51.164;16.924;2022-07-29T13:45:39;45.20;28.90
21801;DHT22;11062;51.164;16.924;2022-07-29T13:48:18;45.00;29.20
21801;DHT22;11062;51.164;16.924;2022-07-29T13:50:44;45.00;28.90
21801;DHT22;11062;51.164;16.924;2022-07-29T13:53:11;44.90;28.90
21801;DHT22;11062;51.164;16.924;2022-07-29T13:55:49;44.80;28.90
21801;DHT22;11062;51.164;16.924;2022-07-29T13:58:17;44.60;28.90
21801;DHT22;11062;51.164;16.924;2022-07-29T14:00:42;44.70;29.10
21801;DHT22;11062;51.164;16.924;2022-07-29T14:03:33;44.60;29.10
21801;DHT22;11062;51.164;16.924;2022-07-29T14:12:41;45.10;28.70
21801;DHT22;11062;51.164;16.924;2022-07-29T14:15:25;45.20;28.90
21801;DHT22;11062;51.164;16.924;2022-07-29T14:17:51;45.30;28.90
21801;DHT22;11062;51.164;16.924;2022-07-29T14:20:17;45.40;29.00
21801;DHT22;11062;51.164;16.924;2022-07-29T14:22:43;45.40;28.90
21801;DHT22;11062;51.164;16.924;2022-07-29T14:25:12;45.50;28.70
21801;DHT22;11062;51.164;16.924;2022-07-29T14:27:38;45.60;28.70
21801;DHT22;11062;51.164;16.924;2022-07-29T14:30:25;45.50;28.70
21801;DHT22;11062;51.164;16.924;2022-07-29T14:32:51;45.50;28.70
21801;DHT22;11062;51.164;16.924;2022-07-29T14:35:31;45.60;28.70
21801;DHT22;11062;51.164;16.924;2022-07-29T14:37:57;45.90;28.60
21801;DHT22;11062;51.164;16.924;2022-07-29T14:40:23;46.10;28.70
21801;DHT22;11062;51.164;16.924;2022-07-29T14:42:51;46.10;28.60
21801;DHT22;11062;51.164;16.924;2022-07-29T14:45:20;46.20;28.50
21801;DHT22;11062;51.164;16.924;2022-07-29T14:47:46;46.00;28.50
21801;DHT22;11062;51.164;16.924;2022-07-29T14:50:12;46.00;28.60
21801;DHT22;11062;51.164;16.924;2022-07-29T14:52:39;45.90;28.50
21801;DHT22;11062;51.164;16.924;2022-07-29T14:55:11;45.90;28.50
21801;DHT22;11062;51.164;16.924;2022-07-29T14:57:47;45.70;28.80
21801;DHT22;11062;51.164;16.924;2022-07-29T15:00:13;45.60;28.80
21801;DHT22;11062;51.164;16.924;2022-07-29T15:02:39;45.60;29.00
21801;DHT22;11062;51.164;16.924;2022-07-29T15:05:06;45.50;29.00
21801;DHT22;11062;51.164;16.924;2022-07-29T15:07:32;45.40;29.10
21801;DHT22;11062;51.164;16.924;2022-07-29T15:09:58;45.40;29.00
21801;DHT22;11062;51.164;16.924;2022-07-29T15:12:24;45.30;29.10
21801;DHT22;11062;51.164;16.924;2022-07-29T15:14:50;45.30;29.20
21801;DHT22;11062;51.164;16.924;2022-07-29T15:17:18;45.30;29.30
21801;DHT22;11062;51.164;16.924;2022-07-29T15:19:45;45.20;29.20
21801;DHT22;11062;51.164;16.924;2022-07-29T15:22:11;45.20;29.40
21801;DHT22;11062;51.164;16.924;2022-07-29T15:24:38;45.20;29.40
21801;DHT22;11062;51.164;16.924;2022-07-29T15:27:04;45.20;29.40
21801;DHT22;11062;51.164;16.924;2022-07-29T15:29:30;45.30;29.40
21801;DHT22;11062;51.164;16.924;2022-07-29T15:31:56;45.10;29.40
21801;DHT22;11062;51.164;16.924;2022-07-29T15:34:22;45.30;29.30
21801;DHT22;11062;51.164;16.924;2022-07-29T15:36:52;45.20;29.10
21801;DHT22;11062;51.164;16.924;2022-07-29T15:39:19;45.50;29.30
21801;DHT22;11062;51.164;16.924;2022-07-29T15:41:46;45.50;29.20
21801;DHT22;11062;51.164;16.924;2022-07-29T15:44:12;45.60;29.20
21801;DHT22;11062;51.164;16.924;2022-07-29T15:46:41;45.60;29.10
21801;DHT22;11062;51.164;16.924;2022-07-29T15:49:29;45.50;29.20
21801;DHT22;11062;51.164;16.924;2022-07-29T15:52:03;45.50;29.10
21801;DHT22;11062;51.164;16.924;2022-07-29T15:54:32;45.50;29.30
21801;DHT22;11062;51.164;16.924;2022-07-29T15:56:59;45.60;29.40
21801;DHT22;11062;51.164;16.924;2022-07-29T15:59:27;45.70;29.30
21801;DHT22;11062;51.164;16.924;2022-07-29T16:01:53;45.70;29.40
21801;DHT22;11062;51.164;16.924;2022-07-29T16:04:19;45.60;29.40
21801;DHT22;11062;51.164;16.924;2022-07-29T16:06:46;45.60;29.20
21801;DHT22;11062;51.164;16.924;2022-07-29T16:09:12;45.40;29.10
21801;DHT22;11062;51.164;16.924;2022-07-29T16:11:39;45.30;29.40
21801;DHT22;11062;51.164;16.924;2022-07-29T16:14:05;45.30;29.50
21801;DHT22;11062;51.164;16.924;2022-07-29T16:16:34;45.30;29.50
21801;DHT22;11062;51.164;16.924;2022-07-29T16:19:00;45.20;29.70
21801;DHT22;11062;51.164;16.924;2022-07-29T16:21:27;45.30;29.80
21801;DHT22;11062;51.164;16.924;2022-07-29T16:23:53;45.10;29.70
21801;DHT22;11062;51.164;16.924;2022-07-29T16:26:19;45.00;29.70
21801;DHT22;11062;51.164;16.924;2022-07-29T16:28:45;44.90;29.90
21801;DHT22;11062;51.164;16.924;2022-07-29T16:31:11;44.90;29.80
21801;DHT22;11062;51.164;16.924;2022-07-29T16:33:38;44.70;29.90
21801;DHT22;11062;51.164;16.924;2022-07-29T16:36:04;44.40;30.00
21801;DHT22;11062;51.164;16.924;2022-07-29T16:38:30;44.40;30.30
21801;DHT22;11062;51.164;16.924;2022-07-29T16:40:56;44.50;30.20
21801;DHT22;11062;51.164;16.924;2022-07-29T16:43:23;44.60;30.10
21801;DHT22;11062;51.164;16.924;2022-07-29T16:45:56;45.00;30.10
21801;DHT22;11062;51.164;16.924;2022-07-29T16:48:22;45.00;30.00